Time;durP1;ratioP1;P1;durP2;ratioP2;P2;SDS_P1;SDS_P2;PMS_P1;PMS_P2;Temp;Humidity;BMP_temperature;BMP_pressure;BME280_temperature;BME280_humidity;BME280_pressure;Samples;Min_cycle;Max_cycle;Signal;HPM_P1;HPM_P2
2023/09/03 00:01:29;;;;;;;;;;;21.70;82.50;;;;;;5058459;28;20010;-77
2023/09/03 00:03:55;;;;;;;;;;;21.70;82.60;;;;;;5061678;28;19975;-76
2023/09/03 00:06:22;;;;;;;;;;;21.70;82.70;;;;;;5056419;28;19984;-76
2023/09/03 00:08:50;;;;;;;;;;;21.60;82.70;;;;;;5060156;28;20648;-76
2023/09/03 00:11:17;;;;;;;;;;;21.60;82.70;;;;;;5062763;28;19995;-76
2023/09/03 00:13:43;;;;;;;;;;;21.60;82.80;;;;;;5059780;28;20446;-76
2023/09/03 00:16:10;;;;;;;;;;;21.60;82.90;;;;;;5053872;28;19995;-76
2023/09/03 00:18:37;;;;;;;;;;;21.60;83.00;;;;;;5059051;28;19980;-76
2023/09/03 00:21:04;;;;;;;;;;;21.50;83.00;;;;;;5061387;28;20026;-77
2023/09/03 00:23:31;;;;;;;;;;;21.50;83.20;;;;;;5062872;28;19980;-76
2023/09/03 00:25:59;;;;;;;;;;;21.50;83.30;;;;;;5062471;28;20454;-76
2023/09/03 00:28:26;;;;;;;;;;;21.50;83.30;;;;;;5060651;28;20580;-77
2023/09/03 00:31:02;;;;;;;;;;;21.40;83.30;;;;;;5059509;28;19999;-77
2023/09/03 00:33:29;;;;;;;;;;;21.40;83.40;;;;;;5056444;28;19979;-76
2023/09/03 00:35:55;;;;;;;;;;;21.40;83.40;;;;;;5061074;28;20074;-76
2023/09/03 00:38:22;;;;;;;;;;;21.40;83.50;;;;;;5062935;28;19983;-77
2023/09/03 00:40:48;;;;;;;;;;;21.40;83.60;;;;;;5061789;28;20006;-76
2023/09/03 00:43:16;;;;;;;;;;;21.30;83.60;;;;;;5054867;28;19980;-77
2023/09/03 00:45:43;;;;;;;;;;;21.30;83.60;;;;;;5059428;28;19991;-76
2023/09/03 00:48:10;;;;;;;;;;;21.30;83.60;;;;;;5059713;28;19983;-77
2023/09/03 00:50:38;;;;;;;;;;;21.30;83.70;;;;;;5054964;28;20006;-76
2023/09/03 00:53:05;;;;;;;;;;;21.30;83.80;;;;;;5057483;28;19986;-76
2023/09/03 00:55:32;;;;;;;;;;;21.20;83.80;;;;;;5059928;28;19983;-76
2023/09/03 00:57:58;;;;;;;;;;;21.20;83.80;;;;;;5059153;28;19982;-76
2023/09/03 01:00:27;;;;;;;;;;;21.20;83.90;;;;;;5059353;28;20009;-76
2023/09/03 01:02:54;;;;;;;;;;;21.20;83.90;;;;;;5060290;28;19987;-76
2023/09/03 01:05:20;;;;;;;;;;;21.10;83.90;;;;;;5063259;28;19980;-75
2023/09/03 01:07:48;;;;;;;;;;;21.10;84.00;;;;;;5063265;28;19975;-77
2023/09/03 01:10:14;;;;;;;;;;;21.10;84.00;;;;;;5063162;28;19990;-77
2023/09/03 01:12:44;;;;;;;;;;;21.10;84.00;;;;;;5065827;28;19983;-77
2023/09/03 01:15:14;;;;;;;;;;;21.10;84.10;;;;;;5063773;28;19983;-77
2023/09/03 01:17:46;;;;;;;;;;;21.10;84.20;;;;;;5062795;28;19980;-76
2023/09/03 01:20:16;;;;;;;;;;;21.00;84.20;;;;;;5064163;28;20053;-76
2023/09/03 01:23:02;;;;;;;;;;;21.00;84.30;;;;;;5059838;28;20474;-77
2023/09/03 01:25:41;;;;;;;;;;;21.00;84.40;;;;;;5059894;28;20066;-77
2023/09/03 01:28:15;;;;;;;;;;;20.90;84.40;;;;;;5062654;28;19980;-77
2023/09/03 01:30:43;;;;;;;;;;;20.90;84.50;;;;;;5061489;28;20129;-76
2023/09/03 01:33:10;;;;;;;;;;;20.90;84.50;;;;;;5064272;28;20435;-77
2023/09/03 01:35:37;;;;;;;;;;;20.90;84.60;;;;;;5060790;28;19980;-77
2023/09/03 01:38:04;;;;;;;;;;;20.90;84.70;;;;;;5064471;28;20445;-77
2023/09/03 01:40:30;;;;;;;;;;;20.80;84.70;;;;;;5059357;28;20010;-77
2023/09/03 01:42:57;;;;;;;;;;;20.80;84.70;;;;;;5061390;28;19979;-76
2023/09/03 01:45:28;;;;;;;;;;;20.80;84.80;;;;;;5059648;28;19984;-76
2023/09/03 01:48:00;;;;;;;;;;;20.80;84.90;;;;;;5065464;28;20310;-76
2023/09/03 01:50:30;;;;;;;;;;;20.80;84.90;;;;;;5062522;28;20569;-76
2023/09/03 01:53:02;;;;;;;;;;;20.80;84.90;;;;;;5063726;28;19980;-77
2023/09/03 01:55:33;;;;;;;;;;;20.70;84.90;;;;;;5061405;28;19993;-77
2023/09/03 01:58:01;;;;;;;;;;;20.70;85.00;;;;;;5061640;28;20839;-77
2023/09/03 02:00:29;;;;;;;;;;;20.70;85.10;;;;;;5060522;28;19999;-76
2023/09/03 02:02:57;;;;;;;;;;;20.70;85.10;;;;;;5065154;28;19983;-77
2023/09/03 02:05:23;;;;;;;;;;;20.60;85.70;;;;;;5061257;28;20374;-76
2023/09/03 02:07:50;;;;;;;;;;;20.60;85.10;;;;;;5063182;28;20279;-77
2023/09/03 02:10:16;;;;;;;;;;;20.60;85.10;;;;;;5060614;28;20548;-77
2023/09/03 02:12:43;;;;;;;;;;;20.60;85.20;;;;;;5063018;28;20063;-77
2023/09/03 02:15:09;;;;;;;;;;;20.60;85.30;;;;;;5056906;28;20053;-77
2023/09/03 02:17:37;;;;;;;;;;;20.50;85.30;;;;;;5060860;28;19980;-77
2023/09/03 02:20:04;;;;;;;;;;;20.50;85.30;;;;;;5064323;28;19987;-76
2023/09/03 02:22:31;;;;;;;;;;;20.50;85.40;;;;;;5056090;28;20010;-77
2023/09/03 02:24:57;;;;;;;;;;;20.50;85.50;;;;;;5059754;28;19983;-76
2023/09/03 02:27:24;;;;;;;;;;;20.50;85.50;;;;;;5059769;28;19975;-77
2023/09/03 02:29:50;;;;;;;;;;;20.40;85.50;;;;;;5063700;28;20070;-77
2023/09/03 02:32:17;;;;;;;;;;;20.40;85.50;;;;;;5060085;28;20337;-76
2023/09/03 02:34:45;;;;;;;;;;;20.40;85.60;;;;;;5057652;28;20622;-77
2023/09/03 02:37:11;;;;;;;;;;;20.40;85.60;;;;;;5063131;28;19976;-77
2023/09/03 02:39:38;;;;;;;;;;;20.30;85.60;;;;;;5063836;28;19982;-77
2023/09/03 02:42:05;;;;;;;;;;;20.30;85.70;;;;;;5064109;28;19995;-77
2023/09/03 02:44:31;;;;;;;;;;;20.30;85.80;;;;;;5065295;28;19980;-76
2023/09/03 02:46:58;;;;;;;;;;;20.30;85.80;;;;;;5059555;28;19999;-76
2023/09/03 02:49:24;;;;;;;;;;;20.30;85.90;;;;;;5062170;28;19984;-77
2023/09/03 02:51:52;;;;;;;;;;;20.30;86.00;;;;;;5062329;28;20417;-77
2023/09/03 02:54:19;;;;;;;;;;;20.20;86.00;;;;;;5062547;28;20521;-77
2023/09/03 02:56:46;;;;;;;;;;;20.20;86.00;;;;;;5061278;28;19984;-76
2023/09/03 02:59:12;;;;;;;;;;;20.20;86.10;;;;;;5062668;28;19983;-77
2023/09/03 03:01:39;;;;;;;;;;;20.20;86.10;;;;;;5053832;28;20007;-77
2023/09/03 03:04:06;;;;;;;;;;;20.20;86.10;;;;;;5065628;28;19975;-78
2023/09/03 03:06:32;;;;;;;;;;;20.10;86.10;;;;;;5058319;28;20074;-77
2023/09/03 03:09:00;;;;;;;;;;;20.10;86.10;;;;;;5063875;28;20006;-78
2023/09/03 03:11:27;;;;;;;;;;;20.10;86.10;;;;;;5061244;28;20464;-76
2023/09/03 03:13:53;;;;;;;;;;;20.10;86.10;;;;;;5064128;28;19979;-76
2023/09/03 03:16:20;;;;;;;;;;;20.10;86.20;;;;;;5060760;28;20094;-77
2023/09/03 03:18:46;;;;;;;;;;;20.10;86.20;;;;;;5059697;28;19990;-78
2023/09/03 03:21:14;;;;;;;;;;;20.10;86.20;;;;;;5062788;28;20003;-77
2023/09/03 03:23:41;;;;;;;;;;;20.10;86.30;;;;;;5064248;28;20011;-77
2023/09/03 03:26:09;;;;;;;;;;;20.00;86.20;;;;;;5063736;28;20478;-78
2023/09/03 03:28:36;;;;;;;;;;;20.00;86.30;;;;;;5060433;28;19976;-78
2023/09/03 03:31:09;;;;;;;;;;;20.00;86.30;;;;;;5060366;28;20004;-77
2023/09/03 03:33:35;;;;;;;;;;;19.90;86.30;;;;;;5056668;28;20014;-78
2023/09/03 03:36:02;;;;;;;;;;;19.90;86.40;;;;;;5059686;28;19980;-78
2023/09/03 03:38:28;;;;;;;;;;;19.90;86.40;;;;;;5052055;28;20128;-76
2023/09/03 03:41:04;;;;;;;;;;;19.90;86.50;;;;;;5062323;28;20469;-77
2023/09/03 03:43:32;;;;;;;;;;;19.90;86.50;;;;;;5057753;28;19978;-77
2023/09/03 03:45:58;;;;;;;;;;;19.90;86.60;;;;;;5058380;28;19991;-77
2023/09/03 03:48:25;;;;;;;;;;;19.90;86.60;;;;;;5063509;28;19979;-77
2023/09/03 03:50:54;;;;;;;;;;;19.80;86.60;;;;;;5059907;28;20628;-77
2023/09/03 03:53:20;;;;;;;;;;;19.90;86.70;;;;;;5061132;28;20347;-77
2023/09/03 03:55:47;;;;;;;;;;;19.80;86.70;;;;;;5061228;28;19979;-77
2023/09/03 03:58:14;;;;;;;;;;;19.80;86.80;;;;;;5056925;28;20365;-78
2023/09/03 04:00:42;;;;;;;;;;;19.80;86.80;;;;;;5060609;28;19999;-78
2023/09/03 04:03:08;;;;;;;;;;;19.80;86.90;;;;;;5060752;28;19979;-77
2023/09/03 04:05:35;;;;;;;;;;;19.70;86.80;;;;;;5058829;28;20444;-77
2023/09/03 04:08:01;;;;;;;;;;;19.70;86.90;;;;;;5060383;28;19976;-78
2023/09/03 04:10:28;;;;;;;;;;;19.70;86.90;;;;;;5053975;28;20003;-77
2023/09/03 04:12:56;;;;;;;;;;;19.70;87.00;;;;;;5062620;28;19982;-78
2023/09/03 04:15:22;;;;;;;;;;;19.70;87.00;;;;;;5056317;28;20026;-78
2023/09/03 04:17:50;;;;;;;;;;;19.60;86.90;;;;;;5060727;28;19986;-78
2023/09/03 04:20:17;;;;;;;;;;;19.70;87.10;;;;;;5059779;28;19983;-78
2023/09/03 04:22:44;;;;;;;;;;;19.60;87.10;;;;;;5057494;28;19999;-78
2023/09/03 04:25:10;;;;;;;;;;;19.60;87.10;;;;;;5058507;28;19987;-78
2023/09/03 04:27:37;;;;;;;;;;;19.60;87.20;;;;;;5056615;28;20363;-77
2023/09/03 04:30:04;;;;;;;;;;;19.60;87.20;;;;;;5064322;28;19991;-78
2023/09/03 04:32:31;;;;;;;;;;;19.60;87.20;;;;;;5059058;28;19996;-78
2023/09/03 04:34:59;;;;;;;;;;;19.60;87.30;;;;;;5054445;28;20022;-77
2023/09/03 04:37:25;;;;;;;;;;;19.60;87.30;;;;;;5060133;28;19987;-78
2023/09/03 04:39:52;;;;;;;;;;;19.60;87.30;;;;;;5064036;28;20063;-77
2023/09/03 04:42:18;;;;;;;;;;;19.50;87.30;;;;;;5062062;28;19995;-78
2023/09/03 04:44:45;;;;;;;;;;;19.50;87.40;;;;;;5058390;28;19975;-78
2023/09/03 04:47:11;;;;;;;;;;;19.50;87.40;;;;;;5061145;28;19991;-79
2023/09/03 04:49:38;;;;;;;;;;;19.50;87.50;;;;;;5063775;28;19986;-77
2023/09/03 04:52:06;;;;;;;;;;;19.50;87.60;;;;;;5061891;28;20007;-79
2023/09/03 04:54:33;;;;;;;;;;;19.50;87.60;;;;;;5060822;28;19986;-77
2023/09/03 04:57:00;;;;;;;;;;;19.50;87.70;;;;;;5064290;28;19975;-78
2023/09/03 04:59:27;;;;;;;;;;;19.40;87.70;;;;;;5060875;28;19986;-78
2023/09/03 05:01:54;;;;;;;;;;;19.40;87.70;;;;;;5065340;28;20698;-77
2023/09/03 05:04:21;;;;;;;;;;;19.40;87.70;;;;;;5064873;28;20725;-78
2023/09/03 05:06:47;;;;;;;;;;;19.40;87.80;;;;;;5061343;28;20565;-78
2023/09/03 05:09:15;;;;;;;;;;;19.40;87.90;;;;;;5064654;28;19979;-78
2023/09/03 05:11:42;;;;;;;;;;;19.40;87.90;;;;;;5065584;28;20026;-79
2023/09/03 05:14:09;;;;;;;;;;;19.40;87.90;;;;;;5060906;28;19986;-78
2023/09/03 05:16:35;;;;;;;;;;;19.40;88.70;;;;;;5060536;28;20729;-78
2023/09/03 05:19:04;;;;;;;;;;;19.30;88.00;;;;;;5063117;28;19976;-78
2023/09/03 05:21:31;;;;;;;;;;;19.30;88.00;;;;;;5066486;28;20486;-78
2023/09/03 05:23:58;;;;;;;;;;;19.30;88.00;;;;;;5064099;28;19975;-78
2023/09/03 05:26:26;;;;;;;;;;;19.30;88.00;;;;;;5062360;28;19984;-78
2023/09/03 05:28:52;;;;;;;;;;;19.30;88.10;;;;;;5062326;28;19980;-78
2023/09/03 05:31:19;;;;;;;;;;;19.20;88.10;;;;;;5059991;28;20000;-78
2023/09/03 05:33:45;;;;;;;;;;;19.30;88.20;;;;;;5058665;28;20497;-77
2023/09/03 05:36:12;;;;;;;;;;;19.30;88.20;;;;;;5060735;28;19987;-78
2023/09/03 05:38:42;;;;;;;;;;;19.20;88.20;;;;;;5063177;28;19987;-77
2023/09/03 05:41:09;;;;;;;;;;;19.20;88.20;;;;;;5058694;28;20031;-79
2023/09/03 05:43:37;;;;;;;;;;;19.20;88.20;;;;;;5060131;28;19979;-79
2023/09/03 05:46:04;;;;;;;;;;;19.20;88.30;;;;;;5063908;28;20411;-78
2023/09/03 05:48:31;;;;;;;;;;;19.20;88.30;;;;;;5063787;28;20094;-78
2023/09/03 05:50:59;;;;;;;;;;;19.20;88.30;;;;;;5065754;28;20066;-77
2023/09/03 05:53:25;;;;;;;;;;;19.20;88.30;;;;;;5063814;28;19979;-78
2023/09/03 05:55:52;;;;;;;;;;;19.20;88.30;;;;;;5064038;28;19975;-78
2023/09/03 05:58:18;;;;;;;;;;;19.20;88.30;;;;;;5060730;28;19991;-78
2023/09/03 06:00:46;;;;;;;;;;;19.20;88.40;;;;;;5064074;28;20003;-78
2023/09/03 06:03:13;;;;;;;;;;;19.20;88.40;;;;;;5065360;28;20094;-78
2023/09/03 06:05:39;;;;;;;;;;;19.20;88.50;;;;;;5060631;28;19982;-76
2023/09/03 06:08:06;;;;;;;;;;;19.20;88.50;;;;;;5060982;28;20086;-78
2023/09/03 06:10:33;;;;;;;;;;;19.20;88.60;;;;;;5062649;28;20003;-78
2023/09/03 06:12:59;;;;;;;;;;;19.20;88.60;;;;;;5060450;28;20002;-79
2023/09/03 06:15:26;;;;;;;;;;;19.20;88.70;;;;;;5061248;28;20006;-77
2023/09/03 06:17:54;;;;;;;;;;;19.10;88.70;;;;;;5061636;28;19975;-77
2023/09/03 06:20:20;;;;;;;;;;;19.20;88.80;;;;;;5065026;28;20000;-78
2023/09/03 06:22:47;;;;;;;;;;;19.20;88.90;;;;;;5064704;28;19999;-78
2023/09/03 06:25:13;;;;;;;;;;;19.20;89.00;;;;;;5064742;28;21154;-78
2023/09/03 06:27:40;;;;;;;;;;;19.20;89.00;;;;;;5062840;28;19987;-78
2023/09/03 06:30:07;;;;;;;;;;;19.20;89.10;;;;;;5052921;28;20062;-78
2023/09/03 06:32:34;;;;;;;;;;;19.10;89.00;;;;;;5061399;28;20778;-78
2023/09/03 06:35:03;;;;;;;;;;;19.10;89.10;;;;;;5059141;28;20024;-77
2023/09/03 06:37:29;;;;;;;;;;;19.10;89.20;;;;;;5057614;28;19980;-78
2023/09/03 06:39:56;;;;;;;;;;;19.10;89.20;;;;;;5058961;28;19983;-78
2023/09/03 06:42:23;;;;;;;;;;;19.10;89.30;;;;;;5058108;28;20383;-78
2023/09/03 06:44:49;;;;;;;;;;;19.10;89.30;;;;;;5057415;28;20026;-78
2023/09/03 06:47:16;;;;;;;;;;;19.20;89.40;;;;;;5065137;28;20007;-77
2023/09/03 06:49:42;;;;;;;;;;;19.10;90.00;;;;;;5060452;28;19979;-78
2023/09/03 06:52:10;;;;;;;;;;;19.20;89.40;;;;;;5065692;28;19996;-78
2023/09/03 06:54:37;;;;;;;;;;;19.10;89.40;;;;;;5061856;28;19983;-78
2023/09/03 06:57:05;;;;;;;;;;;19.10;89.40;;;;;;5064726;28;19979;-78
2023/09/03 06:59:31;;;;;;;;;;;19.20;89.40;;;;;;5060213;28;20019;-78
2023/09/03 07:01:58;;;;;;;;;;;19.20;89.50;;;;;;5059642;28;20382;-78
2023/09/03 07:04:24;;;;;;;;;;;19.20;89.60;;;;;;5062337;28;19983;-77
2023/09/03 07:06:51;;;;;;;;;;;19.10;89.60;;;;;;5059386;28;20003;-78
2023/09/03 07:09:19;;;;;;;;;;;19.20;89.70;;;;;;5058162;28;20405;-77
2023/09/03 07:11:45;;;;;;;;;;;19.20;89.70;;;;;;5058488;28;20018;-78
2023/09/03 07:14:12;;;;;;;;;;;19.20;89.60;;;;;;5056161;28;20533;-78
2023/09/03 07:16:38;;;;;;;;;;;19.20;89.50;;;;;;5058728;28;19995;-78
2023/09/03 07:19:05;;;;;;;;;;;19.20;89.40;;;;;;5060697;28;19980;-77
2023/09/03 07:21:31;;;;;;;;;;;19.20;89.40;;;;;;5058048;28;20000;-76
2023/09/03 07:23:58;;;;;;;;;;;19.20;89.40;;;;;;5057400;28;20461;-78
2023/09/03 07:26:26;;;;;;;;;;;19.20;89.30;;;;;;5064799;28;20418;-77
2023/09/03 07:28:52;;;;;;;;;;;19.20;89.30;;;;;;5056715;28;19975;-77
2023/09/03 07:31:19;;;;;;;;;;;19.20;89.20;;;;;;5056529;28;19999;-78
2023/09/03 07:33:45;;;;;;;;;;;19.30;89.40;;;;;;5061239;28;19983;-78
2023/09/03 07:36:12;;;;;;;;;;;19.20;89.30;;;;;;5065349;28;20485;-77
2023/09/03 07:38:39;;;;;;;;;;;19.30;89.30;;;;;;5058964;28;19983;-77
2023/09/03 07:41:05;;;;;;;;;;;19.30;89.30;;;;;;5062587;28;19996;-78
2023/09/03 07:43:34;;;;;;;;;;;19.30;89.30;;;;;;5064489;28;19995;-78
2023/09/03 07:46:00;;;;;;;;;;;19.30;89.20;;;;;;5061549;28;20006;-78
2023/09/03 07:48:27;;;;;;;;;;;19.30;89.20;;;;;;5062016;28;19984;-77
2023/09/03 07:50:53;;;;;;;;;;;19.30;89.40;;;;;;5062613;28;19999;-78
2023/09/03 07:53:20;;;;;;;;;;;19.30;89.40;;;;;;5053893;28;19996;-77
2023/09/03 07:55:46;;;;;;;;;;;19.30;89.40;;;;;;5061060;28;20006;-78
2023/09/03 07:58:13;;;;;;;;;;;19.40;89.30;;;;;;5056019;28;20457;-78
2023/09/03 08:00:41;;;;;;;;;;;19.40;89.20;;;;;;5051299;28;20061;-77
2023/09/03 08:03:08;;;;;;;;;;;19.40;89.20;;;;;;5057912;28;20006;-77
2023/09/03 08:05:34;;;;;;;;;;;19.40;89.20;;;;;;5056141;28;19983;-76
2023/09/03 08:08:01;;;;;;;;;;;19.40;89.40;;;;;;5049957;28;20022;-77
2023/09/03 08:10:28;;;;;;;;;;;19.40;89.80;;;;;;5055446;28;19995;-77
2023/09/03 08:12:54;;;;;;;;;;;19.40;90.00;;;;;;5055597;28;19980;-77
2023/09/03 08:15:21;;;;;;;;;;;19.50;90.00;;;;;;5053325;28;19976;-77
2023/09/03 08:17:49;;;;;;;;;;;19.50;90.00;;;;;;5054644;28;19980;-77
2023/09/03 08:20:15;;;;;;;;;;;19.50;90.00;;;;;;5060360;28;19986;-77
2023/09/03 08:22:42;;;;;;;;;;;19.60;90.00;;;;;;5055007;28;20000;-77
2023/09/03 08:25:09;;;;;;;;;;;19.60;89.90;;;;;;5052048;28;19984;-77
2023/09/03 08:27:35;;;;;;;;;;;19.60;89.80;;;;;;5051490;28;19986;-77
2023/09/03 08:30:02;;;;;;;;;;;19.60;89.70;;;;;;5055972;28;19982;-77
2023/09/03 08:32:29;;;;;;;;;;;19.60;89.70;;;;;;5058172;28;19991;-77
2023/09/03 08:34:57;;;;;;;;;;;19.60;89.60;;;;;;5060082;28;19985;-78
2023/09/03 08:37:26;;;;;;;;;;;19.70;89.80;;;;;;5059075;28;19979;-77
2023/09/03 08:39:52;;;;;;;;;;;19.70;89.80;;;;;;5063180;28;19983;-77
2023/09/03 08:42:20;;;;;;;;;;;19.70;89.70;;;;;;5057231;28;20000;-77
2023/09/03 08:44:49;;;;;;;;;;;19.80;89.80;;;;;;5053884;28;20086;-76
2023/09/03 08:47:17;;;;;;;;;;;19.80;89.70;;;;;;5060103;28;19998;-78
2023/09/03 08:49:45;;;;;;;;;;;19.80;89.60;;;;;;5058534;28;19975;-78
2023/09/03 08:52:15;;;;;;;;;;;19.90;89.60;;;;;;5059147;28;19991;-77
2023/09/03 08:54:42;;;;;;;;;;;19.90;89.50;;;;;;5055102;28;19979;-77
2023/09/03 08:57:09;;;;;;;;;;;19.90;89.40;;;;;;5055577;28;19983;-76
2023/09/03 08:59:35;;;;;;;;;;;20.00;89.40;;;;;;5056423;28;20366;-77
2023/09/03 09:02:02;;;;;;;;;;;20.00;89.50;;;;;;5053128;28;20398;-77
2023/09/03 09:04:30;;;;;;;;;;;20.10;89.50;;;;;;5060130;28;19979;-77
2023/09/03 09:06:57;;;;;;;;;;;20.10;89.60;;;;;;5060018;28;19975;-78
2023/09/03 09:09:26;;;;;;;;;;;20.10;89.60;;;;;;5057619;28;19976;-76
2023/09/03 09:11:55;;;;;;;;;;;20.20;89.50;;;;;;5054806;28;20461;-77
2023/09/03 09:14:26;;;;;;;;;;;20.20;89.40;;;;;;5056170;28;20037;-78
2023/09/03 09:16:53;;;;;;;;;;;20.20;89.30;;;;;;5055250;28;19991;-77
2023/09/03 09:19:19;;;;;;;;;;;20.30;89.20;;;;;;5062910;28;19975;-77
2023/09/03 09:21:46;;;;;;;;;;;20.30;89.20;;;;;;5061187;28;20426;-77
2023/09/03 09:24:13;;;;;;;;;;;20.30;89.10;;;;;;5061539;28;20449;-77
2023/09/03 09:26:41;;;;;;;;;;;20.30;89.10;;;;;;5061661;28;19980;-77
2023/09/03 09:29:07;;;;;;;;;;;20.40;89.20;;;;;;5058431;28;19984;-77
2023/09/03 09:31:35;;;;;;;;;;;20.40;89.10;;;;;;5063284;28;20082;-77
2023/09/03 09:34:02;;;;;;;;;;;20.50;89.00;;;;;;5065598;28;20097;-77
2023/09/03 09:36:30;;;;;;;;;;;20.50;88.90;;;;;;5067734;28;19979;-77
2023/09/03 09:39:04;;;;;;;;;;;20.50;88.80;;;;;;5060438;28;19983;-77
2023/09/03 09:41:31;;;;;;;;;;;20.60;88.60;;;;;;5065167;28;19998;-77
2023/09/03 09:43:59;;;;;;;;;;;20.70;88.40;;;;;;5063648;28;20002;-78
2023/09/03 09:46:26;;;;;;;;;;;20.70;88.30;;;;;;5061277;28;20015;-77
2023/09/03 09:48:56;;;;;;;;;;;20.70;88.10;;;;;;5057063;28;20042;-77
2023/09/03 09:51:22;;;;;;;;;;;20.80;88.10;;;;;;5064411;28;20018;-77
2023/09/03 09:53:54;;;;;;;;;;;20.80;88.00;;;;;;5057072;28;19976;-77
2023/09/03 09:56:21;;;;;;;;;;;20.90;87.60;;;;;;5058567;28;19983;-77
2023/09/03 09:58:48;;;;;;;;;;;21.00;87.50;;;;;;5064225;28;19979;-77
2023/09/03 10:01:15;;;;;;;;;;;21.10;87.40;;;;;;5056280;28;19999;-76
2023/09/03 10:03:42;;;;;;;;;;;21.20;87.30;;;;;;5062490;28;19998;-77
2023/09/03 10:06:09;;;;;;;;;;;21.20;87.10;;;;;;5058947;28;20470;-76
2023/09/03 10:08:36;;;;;;;;;;;21.30;86.90;;;;;;5052285;28;19976;-77
2023/09/03 10:11:03;;;;;;;;;;;21.30;86.70;;;;;;5065486;28;20474;-77
2023/09/03 10:13:29;;;;;;;;;;;21.40;86.60;;;;;;5063565;28;20541;-77
2023/09/03 10:15:56;;;;;;;;;;;21.50;86.40;;;;;;5056085;28;19995;-77
2023/09/03 10:18:25;;;;;;;;;;;21.50;86.00;;;;;;5060662;28;19983;-77
2023/09/03 10:20:51;;;;;;;;;;;21.60;85.70;;;;;;5059258;28;20004;-77
2023/09/03 10:23:19;;;;;;;;;;;21.60;85.60;;;;;;5060676;28;19996;-77
2023/09/03 10:25:46;;;;;;;;;;;21.70;85.60;;;;;;5060324;28;19983;-77
2023/09/03 10:28:14;;;;;;;;;;;21.80;85.30;;;;;;5064881;28;20435;-77
2023/09/03 10:30:42;;;;;;;;;;;21.80;85.00;;;;;;5057003;28;21155;-77
2023/09/03 10:33:08;;;;;;;;;;;21.90;84.80;;;;;;5058031;28;19979;-77
2023/09/03 10:35:36;;;;;;;;;;;22.00;84.60;;;;;;5060930;28;19982;-76
2023/09/03 10:38:03;;;;;;;;;;;22.00;83.80;;;;;;5063228;28;20479;-77
2023/09/03 10:40:30;;;;;;;;;;;22.10;84.00;;;;;;5062451;28;20014;-77
2023/09/03 10:43:12;;;;;;;;;;;22.10;83.80;;;;;;5060132;28;19995;-77
2023/09/03 10:45:38;;;;;;;;;;;22.20;83.40;;;;;;5053333;28;20002;-76
2023/09/03 10:48:06;;;;;;;;;;;22.20;83.50;;;;;;5060607;28;19976;-77
2023/09/03 10:50:44;;;;;;;;;;;22.30;83.30;;;;;;5056710;28;20589;-77
2023/09/03 10:53:33;;;;;;;;;;;22.40;83.10;;;;;;5055405;28;20244;-78
2023/09/03 10:56:06;;;;;;;;;;;22.50;82.90;;;;;;5062464;28;19975;-77
2023/09/03 10:58:33;;;;;;;;;;;22.50;82.60;;;;;;5060462;28;19979;-76
2023/09/03 11:01:18;;;;;;;;;;;22.60;82.30;;;;;;5054843;28;20097;-76
2023/09/03 11:03:46;;;;;;;;;;;22.60;82.20;;;;;;5061617;28;20461;-77
2023/09/03 11:06:18;;;;;;;;;;;22.70;82.20;;;;;;5061642;28;20025;-77
2023/09/03 11:08:45;;;;;;;;;;;22.80;82.00;;;;;;5065073;28;20060;-77
2023/09/03 11:11:12;;;;;;;;;;;22.80;81.80;;;;;;5060386;28;19995;-77
2023/09/03 11:13:38;;;;;;;;;;;22.90;81.60;;;;;;5062854;28;19975;-77
2023/09/03 11:16:05;;;;;;;;;;;22.90;81.30;;;;;;5057304;28;19999;-78
2023/09/03 11:18:32;;;;;;;;;;;23.00;81.00;;;;;;5061658;28;20006;-77
2023/09/03 11:20:59;;;;;;;;;;;23.00;80.70;;;;;;5061468;28;20007;-76
2023/09/03 11:23:29;;;;;;;;;;;23.10;80.60;;;;;;5052763;28;19992;-78
2023/09/03 11:25:55;;;;;;;;;;;23.10;80.40;;;;;;5063034;28;19983;-77
2023/09/03 11:28:22;;;;;;;;;;;23.20;80.30;;;;;;5059796;28;19975;-77
2023/09/03 11:30:48;;;;;;;;;;;23.20;80.10;;;;;;5061347;28;20004;-77
2023/09/03 11:33:25;;;;;;;;;;;23.30;80.00;;;;;;5063920;28;19980;-77
2023/09/03 11:35:53;;;;;;;;;;;23.30;79.70;;;;;;5059350;28;19976;-77
2023/09/03 11:38:21;;;;;;;;;;;23.40;79.50;;;;;;5062196;28;19987;-77
2023/09/03 11:40:53;;;;;;;;;;;23.50;79.40;;;;;;5056886;28;19987;-77
2023/09/03 11:43:19;;;;;;;;;;;23.50;79.20;;;;;;5056228;28;19999;-77
2023/09/03 11:45:46;;;;;;;;;;;23.60;79.00;;;;;;5063143;28;19992;-78
2023/09/03 11:48:12;;;;;;;;;;;23.70;78.90;;;;;;5053754;28;19979;-77
2023/09/03 11:50:39;;;;;;;;;;;23.70;78.70;;;;;;5062108;28;19999;-77
2023/09/03 11:53:06;;;;;;;;;;;23.80;78.40;;;;;;5059823;28;19987;-76
2023/09/03 11:55:34;;;;;;;;;;;23.80;78.10;;;;;;5062040;28;19989;-77
2023/09/03 11:58:04;;;;;;;;;;;23.90;77.90;;;;;;5059994;28;19987;-77
2023/09/03 12:00:31;;;;;;;;;;;23.90;77.60;;;;;;5059766;28;20014;-77
2023/09/03 12:02:58;;;;;;;;;;;24.00;77.40;;;;;;5057715;28;20018;-78
2023/09/03 12:05:26;;;;;;;;;;;24.10;77.00;;;;;;5056488;28;20030;-76
2023/09/03 12:07:53;;;;;;;;;;;24.10;76.50;;;;;;5052090;28;20062;-78
2023/09/03 12:10:19;;;;;;;;;;;24.20;76.60;;;;;;5054881;28;20473;-77
2023/09/03 12:12:46;;;;;;;;;;;24.20;77.00;;;;;;5055819;28;20010;-77
2023/09/03 12:15:20;;;;;;;;;;;24.30;77.00;;;;;;5060430;28;19984;-77
2023/09/03 12:17:47;;;;;;;;;;;24.30;76.20;;;;;;5057566;28;19983;-77
2023/09/03 12:20:32;;;;;;;;;;;24.40;76.00;;;;;;5058065;28;19986;-77
2023/09/03 12:23:06;;;;;;;;;;;24.50;75.90;;;;;;5059825;28;19972;-77
2023/09/03 12:25:33;;;;;;;;;;;24.50;75.70;;;;;;5060468;28;19978;-77
2023/09/03 12:27:59;;;;;;;;;;;24.50;75.30;;;;;;5055192;28;20044;-78
2023/09/03 12:30:27;;;;;;;;;;;24.60;75.00;;;;;;5057254;28;20003;-78
2023/09/03 12:32:54;;;;;;;;;;;24.70;74.90;;;;;;5055856;28;19980;-77
2023/09/03 12:35:22;;;;;;;;;;;24.70;74.70;;;;;;5062856;28;19982;-77
2023/09/03 12:37:48;;;;;;;;;;;24.70;74.50;;;;;;5058066;28;20358;-77
2023/09/03 12:40:15;;;;;;;;;;;24.80;74.20;;;;;;5061653;28;19983;-77
2023/09/03 12:42:42;;;;;;;;;;;24.80;74.00;;;;;;5052577;28;19976;-77
2023/09/03 12:45:09;;;;;;;;;;;24.90;74.00;;;;;;5058583;28;19999;-77
2023/09/03 12:47:37;;;;;;;;;;;24.90;73.80;;;;;;5051728;28;20355;-77
2023/09/03 12:50:04;;;;;;;;;;;24.90;73.80;;;;;;5059168;28;19980;-76
2023/09/03 12:52:30;;;;;;;;;;;25.00;73.70;;;;;;5057951;28;20620;-77
2023/09/03 12:54:57;;;;;;;;;;;25.00;73.60;;;;;;5058053;28;19987;-78
2023/09/03 12:57:24;;;;;;;;;;;25.00;73.60;;;;;;5056800;28;19984;-77
2023/09/03 12:59:51;;;;;;;;;;;25.10;73.30;;;;;;5063459;28;19983;-77
2023/09/03 13:02:18;;;;;;;;;;;25.10;73.20;;;;;;5057989;28;20004;-78
2023/09/03 13:04:45;;;;;;;;;;;25.10;72.90;;;;;;5061961;28;20002;-77
2023/09/03 13:07:12;;;;;;;;;;;25.20;72.60;;;;;;5064653;28;19991;-77
2023/09/03 13:09:38;;;;;;;;;;;25.30;72.30;;;;;;5062566;28;19983;-77
2023/09/03 13:12:05;;;;;;;;;;;25.30;72.20;;;;;;5059853;28;20002;-78
2023/09/03 13:14:32;;;;;;;;;;;25.40;72.50;;;;;;5062788;28;19980;-78
2023/09/03 13:16:58;;;;;;;;;;;25.40;72.50;;;;;;5060140;28;20004;-78
2023/09/03 13:19:25;;;;;;;;;;;25.40;71.60;;;;;;5062522;28;19983;-77
2023/09/03 13:21:53;;;;;;;;;;;25.40;71.40;;;;;;5058263;28;20002;-77
2023/09/03 13:24:19;;;;;;;;;;;25.50;71.70;;;;;;5061430;28;20048;-77
2023/09/03 13:26:50;;;;;;;;;;;25.50;71.70;;;;;;5060798;28;19975;-77
2023/09/03 13:29:17;;;;;;;;;;;25.50;71.70;;;;;;5060250;28;20044;-77
2023/09/03 13:31:43;;;;;;;;;;;25.50;71.60;;;;;;5064893;28;19995;-77
2023/09/03 13:34:10;;;;;;;;;;;25.60;71.00;;;;;;5061692;28;20362;-77
2023/09/03 13:36:37;;;;;;;;;;;25.60;71.40;;;;;;5067194;28;20382;-77
2023/09/03 13:39:06;;;;;;;;;;;25.70;71.60;;;;;;5061885;28;20651;-78
2023/09/03 13:41:32;;;;;;;;;;;25.70;71.60;;;;;;5062840;28;20634;-78
2023/09/03 13:43:59;;;;;;;;;;;25.70;71.50;;;;;;5064322;28;20473;-78
2023/09/03 13:46:25;;;;;;;;;;;25.80;70.40;;;;;;5057906;28;19998;-78
2023/09/03 13:48:52;;;;;;;;;;;25.70;69.80;;;;;;5064349;28;19980;-77
2023/09/03 13:51:20;;;;;;;;;;;25.80;70.60;;;;;;5060602;28;20006;-77
2023/09/03 13:53:49;;;;;;;;;;;25.80;70.70;;;;;;5063730;28;20347;-77
2023/09/03 13:56:17;;;;;;;;;;;25.90;70.50;;;;;;5062482;28;20037;-76
2023/09/03 13:58:44;;;;;;;;;;;25.90;70.50;;;;;;5056645;28;19972;-77
2023/09/03 14:01:10;;;;;;;;;;;25.90;70.20;;;;;;5065959;28;20006;-77
2023/09/03 14:03:37;;;;;;;;;;;25.90;70.20;;;;;;5057698;28;19987;-77
2023/09/03 14:06:04;;;;;;;;;;;25.90;70.60;;;;;;5060852;28;19990;-78
2023/09/03 14:08:31;;;;;;;;;;;26.00;70.50;;;;;;5057105;28;19989;-77
2023/09/03 14:10:58;;;;;;;;;;;26.00;69.90;;;;;;5062510;28;20378;-78
2023/09/03 14:13:27;;;;;;;;;;;26.00;70.00;;;;;;5066158;28;19987;-77
2023/09/03 14:15:53;;;;;;;;;;;26.00;69.70;;;;;;5054677;28;20363;-77
2023/09/03 14:18:20;;;;;;;;;;;26.00;69.60;;;;;;5066341;28;19979;-77